Time;durP1;ratioP1;P1;durP2;ratioP2;P2;SDS_P1;SDS_P2;PMS_P1;PMS_P2;Temp;Humidity;BMP_temperature;BMP_pressure;BME280_temperature;BME280_humidity;BME280_pressure;Samples;Min_cycle;Max_cycle;Signal;HPM_P1;HPM_P2
2021/07/10 00:01:57;;;;;;;;;15.00;15.00;;;;;-147.17;100.00;59696.56;4975311;28;50887;-52
2021/07/10 00:04:23;;;;;;;;;18.50;16.75;;;;;-147.17;100.00;59696.56;4974687;28;51752;-54
2021/07/10 00:06:49;;;;;;;;;14.75;13.75;;;;;-147.17;100.00;59696.56;4973494;28;51014;-51
2021/07/10 00:09:15;;;;;;;;;14.25;14.00;;;;;-147.17;100.00;59696.56;4974271;28;51488;-51
2021/07/10 00:11:40;;;;;;;;;17.75;14.75;;;;;-147.17;100.00;59696.56;4974671;28;50943;-52
2021/07/10 00:14:06;;;;;;;;;14.25;13.25;;;;;-147.17;100.00;59696.56;4974345;28;52061;-51
2021/07/10 00:16:32;;;;;;;;;16.50;15.25;;;;;-147.17;100.00;59696.56;4974699;28;50975;-50
2021/07/10 00:18:58;;;;;;;;;14.25;13.25;;;;;-147.17;100.00;59696.56;4974134;28;51027;-50
2021/07/10 00:21:23;;;;;;;;;15.50;15.50;;;;;-147.17;100.00;59696.56;4974439;28;51294;-53
2021/07/10 00:23:49;;;;;;;;;16.25;16.00;;;;;-147.17;100.00;59696.56;4973789;28;51661;-51
2021/07/10 00:26:14;;;;;;;;;15.25;14.25;;;;;-147.17;100.00;59696.56;4974918;28;50990;-52
2021/07/10 00:28:39;;;;;;;;;15.25;15.25;;;;;-147.17;100.00;59696.56;4973580;28;51172;-52
2021/07/10 00:31:05;;;;;;;;;17.50;15.75;;;;;-147.17;100.00;59696.56;4974923;28;51244;-51
2021/07/10 00:33:30;;;;;;;;;16.75;16.50;;;;;-147.17;100.00;59696.56;4973785;28;51832;-53
2021/07/10 00:35:55;;;;;;;;;14.25;13.75;;;;;-147.17;100.00;59696.56;4974799;28;51104;-52
2021/07/10 00:38:21;;;;;;;;;13.50;13.50;;;;;-147.17;100.00;59696.56;4976468;28;51073;-53
2021/07/10 00:40:46;;;;;;;;;13.50;13.00;;;;;-147.17;100.00;59696.56;4974635;28;51165;-52
2021/07/10 00:43:12;;;;;;;;;13.50;13.50;;;;;-147.17;100.00;59696.56;4973818;28;52794;-52
2021/07/10 00:45:38;;;;;;;;;14.00;12.50;;;;;-147.17;100.00;59696.56;4974630;28;50912;-54
2021/07/10 00:48:03;;;;;;;;;14.75;13.75;;;;;-147.17;100.00;59696.56;4974193;28;51236;-53
2021/07/10 00:50:29;;;;;;;;;13.50;13.00;;;;;-147.17;100.00;59696.56;4974820;28;51117;-53
2021/07/10 00:52:54;;;;;;;;;11.50;11.00;;;;;-147.17;100.00;59696.56;4973502;28;52003;-53
2021/07/10 00:55:23;;;;;;;;;15.50;15.25;;;;;-147.17;100.00;59696.56;4974374;28;50954;-51
2021/07/10 00:57:50;;;;;;;;;11.75;10.75;;;;;-147.17;100.00;59696.56;4973223;28;51143;-51
2021/07/10 01:00:21;;;;;;;;;13.25;13.25;;;;;-147.17;100.00;59696.56;4974560;28;51356;-51
2021/07/10 01:02:50;;;;;;;;;15.00;15.00;;;;;-147.17;100.00;59696.56;4973404;28;52608;-53
2021/07/10 01:05:21;;;;;;;;;17.00;17.00;;;;;-147.17;100.00;59696.56;4973110;28;51042;-51
2021/07/10 01:07:46;;;;;;;;;12.50;11.75;;;;;-147.17;100.00;59696.56;4971993;28;51099;-51
2021/07/10 01:10:13;;;;;;;;;12.00;12.00;;;;;-147.17;100.00;59696.56;4971793;28;51136;-50
2021/07/10 01:12:39;;;;;;;;;13.50;13.25;;;;;-147.17;100.00;59696.56;4973238;28;51107;-50
2021/07/10 01:15:10;;;;;;;;;12.75;12.00;;;;;-147.17;100.00;59696.56;4973895;28;51074;-52
2021/07/10 01:17:37;;;;;;;;;10.33;10.33;;;;;-147.17;100.00;59696.56;4956519;28;51159;-53
2021/07/10 01:20:08;;;;;;;;;11.67;11.00;;;;;-147.17;100.00;59696.56;4974293;28;51026;-52
2021/07/10 01:22:34;;;;;;;;;12.33;12.33;;;;;-147.17;100.00;59696.56;4972636;28;51065;-52
2021/07/10 01:25:00;;;;;;;;;10.00;10.00;;;;;-147.17;100.00;59696.56;4973878;28;51143;-52
2021/07/10 01:27:25;;;;;;;;;10.00;9.00;;;;;-147.17;100.00;59696.56;4972383;28;51088;-50
2021/07/10 01:29:53;;;;;;;;;13.67;13.33;;;;;-147.17;100.00;59696.56;4973920;28;51219;-50
2021/07/10 01:32:19;;;;;;;;;13.00;13.00;;;;;-147.17;100.00;59696.56;4973275;28;51009;-53
2021/07/10 01:34:46;;;;;;;;;11.67;11.33;;;;;-147.17;100.00;59696.56;4973956;28;50952;-52
2021/07/10 01:37:13;;;;;;;;;12.00;10.50;;;;;-147.17;100.00;59696.56;4976789;28;51061;-53
2021/07/10 01:39:39;;;;;;;;;13.33;13.00;;;;;-147.17;100.00;59696.56;4974742;28;51174;-53
2021/07/10 01:42:04;;;;;;;;;12.33;11.00;;;;;-147.17;100.00;59696.56;4972175;28;51077;-51
2021/07/10 01:44:30;;;;;;;;;13.25;12.75;;;;;-147.17;100.00;59696.56;4956193;28;51118;-52
2021/07/10 01:46:55;;;;;;;;;11.00;11.00;;;;;-147.17;100.00;59696.56;4973898;28;50993;-50
2021/07/10 01:49:20;;;;;;;;;12.75;10.75;;;;;-147.17;100.00;59696.56;4973013;28;51392;-54
2021/07/10 01:51:45;;;;;;;;;10.67;10.33;;;;;-147.17;100.00;59696.56;4973066;28;51109;-54
2021/07/10 01:54:11;;;;;;;;;10.00;10.00;;;;;-147.17;100.00;59696.56;4955323;28;51183;-50
2021/07/10 01:56:36;;;;;;;;;11.00;11.00;;;;;-147.17;100.00;59696.56;4939515;28;51274;-53
2021/07/10 01:59:02;;;;;;;;;12.67;11.67;;;;;-147.17;100.00;59696.56;4972716;28;50935;-52
2021/07/10 02:01:27;;;;;;;;;12.75;12.50;;;;;-147.17;100.00;59696.56;4972549;28;51819;-51
2021/07/10 02:03:52;;;;;;;;;15.00;14.67;;;;;-147.17;100.00;59696.56;4972104;28;51082;-53
2021/07/10 02:06:18;;;;;;;;;12.00;11.33;;;;;-147.17;100.00;59696.56;4973608;28;51053;-51
2021/07/10 02:08:44;;;;;;;;;14.33;13.33;;;;;-147.17;100.00;59696.56;4971860;28;51185;-51
2021/07/10 02:11:10;;;;;;;;;11.33;11.33;;;;;-147.17;100.00;59696.56;4973355;28;51696;-51
2021/07/10 02:13:36;;;;;;;;;12.00;10.75;;;;;-147.17;100.00;59696.56;4972840;28;50864;-51
2021/07/10 02:16:02;;;;;;;;;12.33;11.67;;;;;-147.17;100.00;59696.56;4973377;28;51069;-50
2021/07/10 02:18:28;;;;;;;;;11.50;11.25;;;;;-147.17;100.00;59696.56;4954049;28;51196;-51
2021/07/10 02:20:53;;;;;;;;;12.33;11.33;;;;;-147.17;100.00;59696.56;4973114;28;51706;-51
2021/07/10 02:23:18;;;;;;;;;10.00;10.00;;;;;-147.17;100.00;59696.56;4973305;28;51002;-54
2021/07/10 02:25:44;;;;;;;;;12.75;12.75;;;;;-147.17;100.00;59696.56;4955834;28;51250;-51
2021/07/10 02:28:09;;;;;;;;;15.00;12.00;;;;;-147.17;100.00;59696.56;4970974;28;51015;-52
2021/07/10 02:30:35;;;;;;;;;13.67;12.00;;;;;-147.17;100.00;59696.56;4950917;28;54072;-51
2021/07/10 02:33:04;;;;;;;;;12.00;10.33;;;;;-147.17;100.00;59696.56;4973206;28;51028;-51
2021/07/10 02:35:30;;;;;;;;;11.50;11.50;;;;;-147.17;100.00;59696.56;4955985;28;50911;-53
2021/07/10 02:37:56;;;;;;;;;13.00;12.33;;;;;-147.17;100.00;59696.56;4971812;28;51320;-52
2021/07/10 02:40:22;;;;;;;;;14.67;14.00;;;;;-147.17;100.00;59696.56;4973026;28;51919;-50
2021/07/10 02:42:48;;;;;;;;;12.33;12.33;;;;;-147.17;100.00;59696.56;4972557;28;51134;-51
2021/07/10 02:45:15;;;;;;;;;9.75;9.75;;;;;-147.17;100.00;59696.56;4973417;28;51417;-52
2021/07/10 02:47:41;;;;;;;;;13.00;12.33;;;;;-147.17;100.00;59696.56;4972366;28;51377;-51
2021/07/10 02:50:09;;;;;;;;;13.33;12.00;;;;;-147.17;100.00;59696.56;4972919;28;50931;-50
2021/07/10 02:52:34;;;;;;;;;11.33;11.00;;;;;-147.17;100.00;59696.56;4972829;28;50980;-53
2021/07/10 02:55:00;;;;;;;;;14.00;14.00;;;;;-147.17;100.00;59696.56;4970453;28;51080;-51
2021/07/10 02:57:25;;;;;;;;;12.33;12.33;;;;;-147.17;100.00;59696.56;4972085;28;51150;-50
2021/07/10 02:59:51;;;;;;;;;13.00;12.00;;;;;-147.17;100.00;59696.56;4971819;28;50945;-51
2021/07/10 03:02:16;;;;;;;;;11.67;11.33;;;;;-147.17;100.00;59696.56;4972824;28;50940;-50
2021/07/10 03:04:43;;;;;;;;;14.75;12.50;;;;;-147.17;100.00;59696.56;4970788;28;51112;-51
2021/07/10 03:07:09;;;;;;;;;11.00;10.67;;;;;-147.17;100.00;59696.56;4971423;28;51359;-52
2021/07/10 03:09:34;;;;;;;;;10.33;10.33;;;;;-147.17;100.00;59696.56;4964507;28;51897;-54
2021/07/10 03:12:00;;;;;;;;;14.50;13.75;;;;;-147.17;100.00;59696.56;4972128;28;51054;-50
2021/07/10 03:14:25;;;;;;;;;10.67;10.33;;;;;-147.17;100.00;59696.56;4971689;28;51145;-52
2021/07/10 03:16:50;;;;;;;;;14.00;14.00;;;;;-147.17;100.00;59696.56;4970705;28;51124;-51
2021/07/10 03:19:15;;;;;;;;;12.25;12.25;;;;;-147.17;100.00;59696.56;4972225;28;51873;-52
2021/07/10 03:21:42;;;;;;;;;12.00;12.00;;;;;-147.17;100.00;59696.56;4970719;28;51182;-51
2021/07/10 03:24:08;;;;;;;;;13.75;12.75;;;;;-147.17;100.00;59696.56;4972697;28;51137;-51
2021/07/10 03:26:33;;;;;;;;;14.50;12.75;;;;;-147.17;100.00;59696.56;4954160;28;51318;-51
2021/07/10 03:28:58;;;;;;;;;13.33;13.00;;;;;-147.17;100.00;59696.56;4973701;28;55162;-54
2021/07/10 03:31:24;;;;;;;;;11.50;11.50;;;;;-147.17;100.00;59696.56;4975832;28;50913;-52
2021/07/10 03:33:49;;;;;;;;;12.50;12.00;;;;;-147.17;100.00;59696.56;4974784;28;51141;-51
2021/07/10 03:36:14;;;;;;;;;12.67;11.67;;;;;-147.17;100.00;59696.56;4974933;28;52002;-50
2021/07/10 03:38:43;;;;;;;;;11.00;10.75;;;;;-147.17;100.00;59696.56;4975541;28;54766;-51
2021/07/10 03:41:09;;;;;;;;;13.75;13.25;;;;;-147.17;100.00;59696.56;4958239;28;50957;-52
2021/07/10 03:43:34;;;;;;;;;13.67;12.33;;;;;-147.17;100.00;59696.56;4975612;28;51041;-53
2021/07/10 03:46:02;;;;;;;;;11.67;11.67;;;;;-147.17;100.00;59696.56;4975119;28;51093;-52
2021/07/10 03:48:28;;;;;;;;;12.67;12.67;;;;;-147.17;100.00;59696.56;4975180;28;51929;-52
2021/07/10 03:50:53;;;;;;;;;11.00;11.00;;;;;-147.17;100.00;59696.56;4975476;28;51086;-52
2021/07/10 03:53:19;;;;;;;;;12.50;12.50;;;;;-147.17;100.00;59696.56;4974473;28;52046;-50
2021/07/10 03:55:45;;;;;;;;;13.50;13.50;;;;;-147.17;100.00;59696.56;4975566;28;51179;-52
2021/07/10 03:58:10;;;;;;;;;13.00;13.00;;;;;-147.17;100.00;59696.56;4974127;28;52761;-53
2021/07/10 04:00:36;;;;;;;;;12.50;12.50;;;;;-147.17;100.00;59696.56;4958076;28;51012;-51
2021/07/10 04:03:01;;;;;;;;;13.25;12.25;;;;;-147.17;100.00;59696.56;4973298;28;51148;-51
2021/07/10 04:05:27;;;;;;;;;12.50;11.75;;;;;-147.17;100.00;59696.56;4975462;28;51851;-50
2021/07/10 04:07:52;;;;;;;;;13.00;13.00;;;;;-147.17;100.00;59696.56;4974434;28;51692;-53
2021/07/10 04:10:18;;;;;;;;;16.00;15.50;;;;;-147.17;100.00;59696.56;4975279;28;51093;-50
2021/07/10 04:12:45;;;;;;;;;13.33;12.33;;;;;-147.17;100.00;59696.56;4974480;28;51106;-51
2021/07/10 04:15:15;;;;;;;;;11.50;11.25;;;;;-147.17;100.00;59696.56;4974556;28;51121;-50
2021/07/10 04:17:41;;;;;;;;;11.75;11.50;;;;;-147.17;100.00;59696.56;4974677;28;51829;-51
2021/07/10 04:20:09;;;;;;;;;13.25;13.00;;;;;-147.17;100.00;59696.56;4974843;28;50923;-50
2021/07/10 04:22:35;;;;;;;;;14.25;12.75;;;;;-147.17;100.00;59696.56;4975328;28;50993;-52
2021/07/10 04:25:03;;;;;;;;;13.00;12.75;;;;;-147.17;100.00;59696.56;4974540;28;51106;-51
2021/07/10 04:27:31;;;;;;;;;14.75;14.75;;;;;-147.17;100.00;59696.56;4974329;28;53037;-52
2021/07/10 04:29:56;;;;;;;;;14.00;14.00;;;;;-147.17;100.00;59696.56;4973623;28;51336;-52
2021/07/10 04:32:21;;;;;;;;;14.50;14.00;;;;;-147.17;100.00;59696.56;4975069;28;51224;-50
2021/07/10 04:34:47;;;;;;;;;14.25;14.25;;;;;-147.17;100.00;59696.56;4974394;28;51477;-50
2021/07/10 04:37:13;;;;;;;;;12.75;11.50;;;;;-147.17;100.00;59696.56;4976668;28;52059;-50
2021/07/10 04:39:39;;;;;;;;;13.50;12.00;;;;;-147.17;100.00;59696.56;4974472;28;50910;-54
2021/07/10 04:42:05;;;;;;;;;14.50;14.50;;;;;-147.17;100.00;59696.56;4974726;28;51092;-51
2021/07/10 04:44:31;;;;;;;;;15.33;14.00;;;;;-147.17;100.00;59696.56;4974771;28;51192;-51
2021/07/10 04:46:57;;;;;;;;;12.67;12.00;;;;;-147.17;100.00;59696.56;4974282;28;51906;-52
2021/07/10 04:49:22;;;;;;;;;11.50;11.50;;;;;-147.17;100.00;59696.56;4973816;28;51207;-54
2021/07/10 04:51:47;;;;;;;;;11.67;11.33;;;;;-147.17;100.00;59696.56;4974924;28;50966;-52
2021/07/10 04:54:13;;;;;;;;;11.33;10.33;;;;;-147.17;100.00;59696.56;4974671;28;51188;-53
2021/07/10 04:56:38;;;;;;;;;12.50;12.00;;;;;-147.17;100.00;59696.56;4974626;28;52657;-53
2021/07/10 04:59:04;;;;;;;;;11.75;11.75;;;;;-147.17;100.00;59696.56;4971505;28;51128;-51
2021/07/10 05:01:30;;;;;;;;;11.00;11.00;;;;;-147.17;100.00;59696.56;4974721;28;51141;-52
2021/07/10 05:03:56;;;;;;;;;14.25;13.50;;;;;-147.17;100.00;59696.56;4948854;28;51090;-51
2021/07/10 05:06:21;;;;;;;;;11.33;11.33;;;;;-147.17;100.00;59696.56;4973409;28;51803;-51
2021/07/10 05:08:47;;;;;;;;;12.00;11.33;;;;;-147.17;100.00;59696.56;4973316;28;51049;-54
2021/07/10 05:11:12;;;;;;;;;13.75;13.75;;;;;-147.17;100.00;59696.56;4972741;28;50938;-53
2021/07/10 05:13:37;;;;;;;;;11.75;10.50;;;;;-147.17;100.00;59696.56;4974289;28;51191;-52
2021/07/10 05:16:03;;;;;;;;;11.67;10.67;;;;;-147.17;100.00;59696.56;4954720;28;52681;-51
2021/07/10 05:18:28;;;;;;;;;12.00;11.33;;;;;-147.17;100.00;59696.56;4973585;28;51070;-54
2021/07/10 05:20:54;;;;;;;;;13.33;13.33;;;;;-147.17;100.00;59696.56;4974810;28;51129;-51
2021/07/10 05:23:19;;;;;;;;;9.67;9.67;;;;;-147.17;100.00;59696.56;4973959;28;51408;-50
2021/07/10 05:25:45;;;;;;;;;16.75;14.75;;;;;-147.17;100.00;59696.56;4972347;28;52804;-52
2021/07/10 05:28:10;;;;;;;;;11.00;10.00;;;;;-147.17;100.00;59696.56;4971654;28;51030;-53
2021/07/10 05:30:35;;;;;;;;;12.75;12.00;;;;;-147.17;100.00;59696.56;4971765;28;51256;-53
2021/07/10 05:33:01;;;;;;;;;13.67;13.33;;;;;-147.17;100.00;59696.56;4973279;28;51044;-51
2021/07/10 05:35:27;;;;;;;;;11.00;9.33;;;;;-147.17;100.00;59696.56;4972862;28;51729;-51
2021/07/10 05:37:53;;;;;;;;;13.33;12.33;;;;;-147.17;100.00;59696.56;4977497;28;51068;-52
2021/07/10 05:40:19;;;;;;;;;13.25;12.50;;;;;-147.17;100.00;59696.56;4974021;28;51166;-52
2021/07/10 05:42:48;;;;;;;;;12.33;12.00;;;;;-147.17;100.00;59696.56;4952326;28;51250;-52
2021/07/10 05:45:15;;;;;;;;;12.33;11.67;;;;;-147.17;100.00;59696.56;4964479;28;51930;-51
2021/07/10 05:47:41;;;;;;;;;9.00;9.00;;;;;-147.17;100.00;59696.56;4955994;28;51073;-52
2021/07/10 05:50:07;;;;;;;;;11.67;11.67;;;;;-147.17;100.00;59696.56;4973950;28;51210;-52
2021/07/10 05:52:32;;;;;;;;;12.67;11.33;;;;;-147.17;100.00;59696.56;4940429;28;51312;-53
2021/07/10 05:54:58;;;;;;;;;14.00;11.67;;;;;-147.17;100.00;59696.56;4973178;28;51022;-53
2021/07/10 05:57:23;;;;;;;;;10.00;10.00;;;;;-147.17;100.00;59696.56;4955909;28;51037;-52
2021/07/10 05:59:48;;;;;;;;;11.00;10.33;;;;;-147.17;100.00;59696.56;4973736;28;50965;-50
2021/07/10 06:02:13;;;;;;;;;15.67;14.67;;;;;-147.17;100.00;59696.56;4973024;28;51020;-50
2021/07/10 06:04:39;;;;;;;;;10.67;10.67;;;;;-147.17;100.00;59696.56;4973346;28;53328;-51
2021/07/10 06:07:09;;;;;;;;;10.67;9.67;;;;;-147.17;100.00;59696.56;4972311;28;51061;-52
2021/07/10 06:09:35;;;;;;;;;5.00;5.00;;;;;-147.17;100.00;59696.56;4973816;28;50992;-52
2021/07/10 06:12:01;;;;;;;;;9.67;9.67;;;;;-147.17;100.00;59696.56;4969969;28;54649;-50
2021/07/10 06:14:26;;;;;;;;;9.00;9.00;;;;;-147.17;100.00;59696.56;4972785;28;51768;-50
2021/07/10 06:16:52;;;;;;;;;11.33;11.33;;;;;-147.17;100.00;59696.56;4973239;28;50981;-50
2021/07/10 06:19:17;;;;;;;;;8.67;7.00;;;;;-147.17;100.00;59696.56;4964795;28;51170;-49
2021/07/10 06:21:43;;;;;;;;;7.67;7.00;;;;;-147.17;100.00;59696.56;4967599;28;51163;-49
2021/07/10 06:24:08;;;;;;;;;7.00;7.00;;;;;-147.17;100.00;59696.56;4968124;28;51148;-51
2021/07/10 06:26:33;;;;;;;;;8.00;8.00;;;;;-147.17;100.00;59696.56;4966384;28;51454;-50
2021/07/10 06:29:00;;;;;;;;;7.00;7.00;;;;;-147.17;100.00;59696.56;4967136;28;51564;-52
2021/07/10 06:31:26;;;;;;;;;9.67;9.00;;;;;-147.17;100.00;59696.56;4966721;28;51120;-52
2021/07/10 06:33:51;;;;;;;;;7.67;7.67;;;;;-147.17;100.00;59696.56;4977304;28;51682;-50
2021/07/10 06:36:17;;;;;;;;;8.33;8.33;;;;;-147.17;100.00;59696.56;4965208;28;51331;-51
2021/07/10 06:38:42;;;;;;;;;9.00;9.00;;;;;-147.17;100.00;59696.56;4970203;28;50974;-52
2021/07/10 06:41:08;;;;;;;;;7.00;6.33;;;;;-147.17;100.00;59696.56;4968304;28;52706;-52
2021/07/10 06:43:33;;;;;;;;;8.00;8.00;;;;;-147.17;100.00;59696.56;4969612;28;52645;-51
2021/07/10 06:45:58;;;;;;;;;8.00;8.00;;;;;-147.17;100.00;59696.56;4968223;28;51070;-50
2021/07/10 06:48:24;;;;;;;;;6.00;5.67;;;;;-147.17;100.00;59696.56;4967298;28;51180;-50
2021/07/10 06:50:50;;;;;;;;;10.00;10.00;;;;;-147.17;100.00;59696.56;4973154;28;51403;-52
2021/07/10 06:53:21;;;;;;;;;11.33;9.33;;;;;-147.17;100.00;59696.56;4970574;28;52223;-51
2021/07/10 06:55:48;;;;;;;;;9.00;9.00;;;;;-147.17;100.00;59696.56;4971356;28;51144;-50
2021/07/10 06:58:13;;;;;;;;;10.33;9.67;;;;;-147.17;100.00;59696.56;4972567;28;51055;-50
2021/07/10 07:00:39;;;;;;;;;7.67;7.33;;;;;-147.17;100.00;59696.56;4973004;28;50897;-50
2021/07/10 07:03:04;;;;;;;;;6.33;6.33;;;;;-147.17;100.00;59696.56;4974789;28;52364;-52
2021/07/10 07:05:30;;;;;;;;;6.67;6.00;;;;;-147.17;100.00;59696.56;4976290;28;51120;-50
2021/07/10 07:07:55;;;;;;;;;6.00;6.00;;;;;-147.17;100.00;59696.56;4975506;28;51224;-51
2021/07/10 07:10:21;;;;;;;;;9.00;9.00;;;;;-147.17;100.00;59696.56;4974680;28;51324;-51
2021/07/10 07:12:47;;;;;;;;;8.00;7.67;;;;;-147.17;100.00;59696.56;4971787;28;51120;-51
2021/07/10 07:15:13;;;;;;;;;7.33;7.33;;;;;-147.17;100.00;59696.56;4974593;28;51139;-52
2021/07/10 07:17:38;;;;;;;;;7.00;7.00;;;;;-147.17;100.00;59696.56;4975191;28;51283;-53
2021/07/10 07:20:06;;;;;;;;;6.33;6.33;;;;;-147.17;100.00;59696.56;4975449;28;51287;-52
2021/07/10 07:22:33;;;;;;;;;5.00;5.00;;;;;-147.17;100.00;59696.56;4975352;28;52880;-52
2021/07/10 07:24:58;;;;;;;;;5.67;5.00;;;;;-147.17;100.00;59696.56;4975774;28;50969;-50
2021/07/10 07:27:23;;;;;;;;;5.00;5.00;;;;;-147.17;100.00;59696.56;4973517;28;50986;-51
2021/07/10 07:29:49;;;;;;;;;3.67;3.67;;;;;-147.17;100.00;59696.56;4980734;28;51499;-51
2021/07/10 07:32:14;;;;;;;;;5.33;4.33;;;;;-147.17;100.00;59696.56;4971748;28;51853;-54
2021/07/10 07:34:40;;;;;;;;;4.33;3.67;;;;;-147.17;100.00;59696.56;4975692;28;51073;-51
2021/07/10 07:37:05;;;;;;;;;4.00;4.00;;;;;-147.17;100.00;59696.56;4958648;28;51317;-53
2021/07/10 07:39:30;;;;;;;;;2.33;2.33;;;;;-147.17;100.00;59696.56;4960021;28;50986;-50
2021/07/10 07:41:56;;;;;;;;;3.00;3.00;;;;;-147.17;100.00;59696.56;4977608;28;51271;-53
2021/07/10 07:44:21;;;;;;;;;3.00;3.00;;;;;-147.17;100.00;59696.56;4978747;28;51108;-54
2021/07/10 07:46:46;;;;;;;;;2.00;2.00;;;;;-147.17;100.00;59696.56;4976275;28;50957;-53
2021/07/10 07:49:12;;;;;;;;;3.00;3.00;;;;;-147.17;100.00;59696.56;4975748;28;51411;-51
2021/07/10 07:51:37;;;;;;;;;4.00;4.00;;;;;-147.17;100.00;59696.56;4974686;28;52233;-53
2021/07/10 07:54:03;;;;;;;;;2.67;2.67;;;;;-147.17;100.00;59696.56;4975253;28;51124;-51
2021/07/10 07:56:28;;;;;;;;;2.67;2.67;;;;;-147.17;100.00;59696.56;4938548;28;51285;-49
2021/07/10 07:58:54;;;;;;;;;2.00;2.00;;;;;-147.17;100.00;59696.56;4953970;28;51169;-53
2021/07/10 08:01:19;;;;;;;;;2.00;2.00;;;;;-147.17;100.00;59696.56;4976858;28;51728;-53
2021/07/10 08:03:47;;;;;;;;;2.67;2.67;;;;;-147.17;100.00;59696.56;4974406;28;51094;-53
2021/07/10 08:06:13;;;;;;;;;2.67;2.67;;;;;-147.17;100.00;59696.56;4972764;28;51276;-52
2021/07/10 08:08:39;;;;;;;;;3.00;3.00;;;;;-147.17;100.00;59696.56;4975445;28;50998;-54
2021/07/10 08:11:06;;;;;;;;;4.00;4.00;;;;;-147.17;100.00;59696.56;4974407;28;51195;-53
2021/07/10 08:13:32;;;;;;;;;4.00;4.00;;;;;-147.17;100.00;59696.56;4954251;28;51088;-52
2021/07/10 08:15:58;;;;;;;;;5.00;4.00;;;;;-147.17;100.00;59696.56;4969407;28;51144;-51
2021/07/10 08:18:23;;;;;;;;;3.33;3.33;;;;;-147.17;100.00;59696.56;4974983;28;51026;-54
2021/07/10 08:20:49;;;;;;;;;3.67;3.67;;;;;-147.17;100.00;59696.56;4974949;28;51895;-49
2021/07/10 08:23:14;;;;;;;;;4.67;4.00;;;;;-147.17;100.00;59696.56;4975218;28;51005;-51
2021/07/10 08:25:39;;;;;;;;;2.00;2.00;;;;;-147.17;100.00;59696.56;4974796;28;50959;-50
2021/07/10 08:28:05;;;;;;;;;5.33;5.00;;;;;-147.17;100.00;59696.56;4974791;28;51418;-53
2021/07/10 08:30:31;;;;;;;;;6.00;6.00;;;;;-147.17;100.00;59696.56;4974452;28;52074;-54
2021/07/10 08:32:56;;;;;;;;;5.00;5.00;;;;;-147.17;100.00;59696.56;4974846;28;50862;-51
2021/07/10 08:35:22;;;;;;;;;4.00;4.00;;;;;-147.17;100.00;59696.56;4974455;28;50939;-52
2021/07/10 08:37:48;;;;;;;;;5.00;4.00;;;;;-147.17;100.00;59696.56;4975859;28;50894;-52
2021/07/10 08:40:15;;;;;;;;;4.67;4.33;;;;;-147.17;100.00;59696.56;4974441;28;51890;-53
2021/07/10 08:42:41;;;;;;;;;4.00;4.00;;;;;-147.17;100.00;59696.56;4956619;28;51023;-53
2021/07/10 08:45:10;;;;;;;;;3.00;3.00;;;;;-147.17;100.00;59696.56;4974471;28;51117;-51
2021/07/10 08:47:37;;;;;;;;;8.00;8.00;;;;;-147.17;100.00;59696.56;4957573;28;51229;-51
2021/07/10 08:50:09;;;;;;;;;5.00;4.00;;;;;-147.17;100.00;59696.56;4973940;28;51939;-54
2021/07/10 08:52:35;;;;;;;;;5.00;5.00;;;;;-147.17;100.00;59696.56;4974247;28;51049;-53
2021/07/10 08:55:07;;;;;;;;;5.00;5.00;;;;;-147.17;100.00;59696.56;4974323;28;51059;-53
2021/07/10 08:57:35;;;;;;;;;5.67;5.00;;;;;-147.17;100.00;59696.56;4956742;28;51113;-50
2021/07/10 09:00:07;;;;;;;;;6.33;5.00;;;;;-147.17;100.00;59696.56;4973805;28;52903;-50
2021/07/10 09:02:34;;;;;;;;;6.00;5.33;;;;;-147.17;100.00;59696.56;4974002;28;51073;-54
2021/07/10 09:05:00;;;;;;;;;5.67;5.67;;;;;-147.17;100.00;59696.56;4974182;28;50934;-53
2021/07/10 09:07:25;;;;;;;;;7.00;6.00;;;;;-147.17;100.00;59696.56;4974400;28;50891;-53
2021/07/10 09:09:51;;;;;;;;;8.00;7.33;;;;;-147.17;100.00;59696.56;4973849;28;51954;-53
2021/07/10 09:12:28;;;;;;;;;4.67;4.67;;;;;-147.17;100.00;59696.56;4967221;28;51134;-50
2021/07/10 09:14:54;;;;;;;;;3.00;3.00;;;;;-147.17;100.00;59696.56;4973992;28;51030;-52
2021/07/10 09:17:24;;;;;;;;;7.00;7.00;;;;;-147.17;100.00;59696.56;4973863;28;51038;-52
2021/07/10 09:19:50;;;;;;;;;6.33;6.33;;;;;-147.17;100.00;59696.56;4973604;28;52142;-52
2021/07/10 09:22:30;;;;;;;;;5.67;5.00;;;;;-147.17;100.00;59696.56;4973887;28;51023;-51
2021/07/10 09:24:59;;;;;;;;;10.33;10.00;;;;;-147.17;100.00;59696.56;4972385;28;51033;-52
2021/07/10 09:27:25;;;;;;;;;5.00;5.00;;;;;-147.17;100.00;59696.56;4973155;28;51163;-50
2021/07/10 09:29:50;;;;;;;;;5.00;5.00;;;;;-147.17;100.00;59696.56;4973315;28;51015;-52
2021/07/10 09:32:24;;;;;;;;;5.00;4.33;;;;;-147.17;100.00;59696.56;4973693;28;50947;-52
2021/07/10 09:34:53;;;;;;;;;6.00;5.00;;;;;-147.17;100.00;59696.56;4956334;28;51143;-52
2021/07/10 09:37:27;;;;;;;;;5.67;5.33;;;;;-147.17;100.00;59696.56;4974228;28;51188;-53
2021/07/10 09:39:58;;;;;;;;;5.00;5.00;;;;;-147.17;100.00;59696.56;4972893;28;51795;-53
2021/07/10 09:42:30;;;;;;;;;6.00;5.33;;;;;-147.17;100.00;59696.56;4955219;28;51234;-52
2021/07/10 09:44:55;;;;;;;;;7.67;6.33;;;;;-147.17;100.00;59696.56;4973261;28;51057;-50
2021/07/10 09:47:30;;;;;;;;;4.67;4.67;;;;;-147.17;100.00;59696.56;4973787;28;51037;-53
2021/07/10 09:49:56;;;;;;;;;4.00;4.00;;;;;-147.17;100.00;59696.56;4973253;28;51878;-53
2021/07/10 09:52:24;;;;;;;;;6.33;4.33;;;;;-147.17;100.00;59696.56;4973160;28;51001;-51
2021/07/10 09:54:54;;;;;;;;;7.00;7.00;;;;;-147.17;100.00;59696.56;4972961;28;50939;-52
2021/07/10 09:57:28;;;;;;;;;6.00;6.00;;;;;-147.17;100.00;59696.56;4972930;28;50981;-52
2021/07/10 10:00:08;;;;;;;;;5.33;5.00;;;;;-147.17;100.00;59696.56;4972479;28;52027;-53
2021/07/10 10:02:55;;;;;;;;;4.00;4.00;;;;;-147.17;100.00;59696.56;4972495;28;51010;-54
2021/07/10 10:05:34;;;;;;;;;4.00;3.67;;;;;-147.17;100.00;59696.56;4972786;28;50979;-52
2021/07/10 10:08:02;;;;;;;;;3.67;3.67;;;;;-147.17;100.00;59696.56;4973138;28;51316;-51
2021/07/10 10:10:36;;;;;;;;;7.00;6.00;;;;;-147.17;100.00;59696.56;4972862;28;54308;-54
2021/07/10 10:13:04;;;;;;;;;5.67;5.00;;;;;-147.17;100.00;59696.56;4972611;28;51096;-52
2021/07/10 10:15:42;;;;;;;;;5.00;4.67;;;;;-147.17;100.00;59696.56;4973063;28;51028;-53
2021/07/10 10:18:10;;;;;;;;;6.00;5.00;;;;;-147.17;100.00;59696.56;4955598;28;51187;-53
2021/07/10 10:20:37;;;;;;;;;5.00;4.33;;;;;-147.17;100.00;59696.56;4972510;28;51080;-54
2021/07/10 10:23:04;;;;;;;;;5.67;5.67;;;;;-147.17;100.00;59696.56;4972674;28;50970;-52
2021/07/10 10:25:31;;;;;;;;;5.00;5.00;;;;;-147.17;100.00;59696.56;4972716;28;51023;-53
2021/07/10 10:27:57;;;;;;;;;8.00;7.33;;;;;-147.17;100.00;59696.56;4972539;28;51324;-51
2021/07/10 10:30:23;;;;;;;;;3.00;3.00;;;;;-147.17;100.00;59696.56;4954796;28;52002;-53
2021/07/10 10:32:50;;;;;;;;;6.00;6.00;;;;;-147.17;100.00;59696.56;4972433;28;51201;-52
2021/07/10 10:35:17;;;;;;;;;3.00;3.00;;;;;-147.17;100.00;59696.56;4972150;28;51126;-53
2021/07/10 10:37:42;;;;;;;;;5.00;5.00;;;;;-147.17;100.00;59696.56;4972767;28;51065;-53
2021/07/10 10:40:13;;;;;;;;;2.00;2.00;;;;;-147.17;100.00;59696.56;4971463;28;52663;-53
2021/07/10 10:42:39;;;;;;;;;3.00;3.00;;;;;-147.17;100.00;59696.56;4972078;28;50930;-52
2021/07/10 10:45:06;;;;;;;;;6.00;6.00;;;;;-147.17;100.00;59696.56;4954504;28;51096;-51
2021/07/10 10:47:48;;;;;;;;;10.67;10.67;;;;;-147.17;100.00;59696.56;4971626;28;51113;-51
2021/07/10 10:50:35;;;;;;;;;2.00;2.00;;;;;-147.17;100.00;59696.56;4971781;28;51830;-51
2021/07/10 10:53:02;;;;;;;;;4.00;4.00;;;;;-147.17;100.00;59696.56;4971960;28;51157;-53
2021/07/10 10:55:33;;;;;;;;;4.33;4.33;;;;;-147.17;100.00;59696.56;4972185;28;51070;-51
2021/07/10 10:58:02;;;;;;;;;5.67;5.00;;;;;-147.17;100.00;59696.56;4971645;28;51300;-52